sensor_id;sensor_type;location;lat;lon;timestamp;pressure;altitude;pressure_sealevel;temperature;humidity
35419;BME280;21525;41.240;16.500;2022-08-01T00:01:57;101077.69;;;33.37;45.93
35419;BME280;21525;41.240;16.500;2022-08-01T00:04:23;101069.97;;;33.25;46.20
35419;BME280;21525;41.240;16.500;2022-08-01T00:06:49;101069.13;;;33.42;46.39
35419;BME280;21525;41.240;16.500;2022-08-01T00:09:15;101076.75;;;32.67;47.88
35419;BME280;21525;41.240;16.500;2022-08-01T00:11:41;101082.00;;;33.30;46.77
35419;BME280;21525;41.240;16.500;2022-08-01T00:14:07;101073.66;;;32.98;47.16
35419;BME280;21525;41.240;16.500;2022-08-01T00:16:36;101072.38;;;33.54;46.16
35419;BME280;21525;41.240;16.500;2022-08-01T00:19:02;101068.97;;;33.52;45.76
35419;BME280;21525;41.240;16.500;2022-08-01T00:21:27;101079.47;;;33.29;46.68
35419;BME280;21525;41.240;16.500;2022-08-01T00:23:53;101066.78;;;33.47;46.18
35419;BME280;21525;41.240;16.500;2022-08-01T00:26:19;101060.63;;;33.11;48.02
35419;BME280;21525;41.240;16.500;2022-08-01T00:28:45;101075.38;;;33.43;47.21
35419;BME280;21525;41.240;16.500;2022-08-01T00:31:11;101069.31;;;33.49;47.29
35419;BME280;21525;41.240;16.500;2022-08-01T00:33:37;101068.66;;;33.55;46.79
35419;BME280;21525;41.240;16.500;2022-08-01T00:36:03;101072.56;;;33.09;47.75
35419;BME280;21525;41.240;16.500;2022-08-01T00:38:29;101077.63;;;33.29;47.42
35419;BME280;21525;41.240;16.500;2022-08-01T00:40:55;101074.84;;;33.21;47.55
35419;BME280;21525;41.240;16.500;2022-08-01T00:43:21;101071.91;;;33.32;47.39
35419;BME280;21525;41.240;16.500;2022-08-01T00:45:47;101070.59;;;32.93;48.15
35419;BME280;21525;41.240;16.500;2022-08-01T00:48:12;101061.66;;;33.10;47.72
35419;BME280;21525;41.240;16.500;2022-08-01T00:50:38;101066.66;;;33.05;48.32
35419;BME280;21525;41.240;16.500;2022-08-01T00:53:04;101067.50;;;32.52;49.96
35419;BME280;21525;41.240;16.500;2022-08-01T00:55:31;101069.88;;;32.55;49.77
35419;BME280;21525;41.240;16.500;2022-08-01T00:57:58;101070.59;;;32.39;49.88
35419;BME280;21525;41.240;16.500;2022-08-01T01:00:24;101064.63;;;32.81;49.04
35419;BME280;21525;41.240;16.500;2022-08-01T01:02:51;101065.78;;;32.79;49.41
35419;BME280;21525;41.240;16.500;2022-08-01T01:05:17;101059.59;;;32.33;50.30
35419;BME280;21525;41.240;16.500;2022-08-01T01:08:02;101059.59;;;32.68;49.55
35419;BME280;21525;41.240;16.500;2022-08-01T01:10:38;101059.84;;;32.75;49.26
35419;BME280;21525;41.240;16.500;2022-08-01T01:18:23;101060.38;;;32.79;48.46
35419;BME280;21525;41.240;16.500;2022-08-01T01:21:00;101053.56;;;32.92;47.70
35419;BME280;21525;41.240;16.500;2022-08-01T01:23:50;101054.53;;;32.48;48.60
35419;BME280;21525;41.240;16.500;2022-08-01T01:31:52;101057.59;;;32.88;48.15
35419;BME280;21525;41.240;16.500;2022-08-01T01:34:21;101057.16;;;32.12;50.91
35419;BME280;21525;41.240;16.500;2022-08-01T01:36:49;101064.31;;;32.49;49.44
35419;BME280;21525;41.240;16.500;2022-08-01T01:39:18;101068.16;;;32.46;50.13
35419;BME280;21525;41.240;16.500;2022-08-01T01:41:45;101067.22;;;32.37;50.18
35419;BME280;21525;41.240;16.500;2022-08-01T01:44:13;101068.38;;;31.80;51.70
35419;BME280;21525;41.240;16.500;2022-08-01T01:46:41;101069.41;;;32.24;50.99
35419;BME280;21525;41.240;16.500;2022-08-01T01:49:08;101066.06;;;32.13;50.61
35419;BME280;21525;41.240;16.500;2022-08-01T01:51:37;101055.91;;;32.06;50.67
35419;BME280;21525;41.240;16.500;2022-08-01T01:54:04;101055.03;;;32.51;49.86
35419;BME280;21525;41.240;16.500;2022-08-01T01:56:31;101064.13;;;32.32;49.96
35419;BME280;21525;41.240;16.500;2022-08-01T01:59:00;101061.84;;;32.10;50.78
35419;BME280;21525;41.240;16.500;2022-08-01T02:01:28;101056.31;;;32.12;51.30
35419;BME280;21525;41.240;16.500;2022-08-01T02:03:56;101044.84;;;32.10;51.36
35419;BME280;21525;41.240;16.500;2022-08-01T02:06:23;101055.91;;;32.06;51.36
35419;BME280;21525;41.240;16.500;2022-08-01T02:08:52;101053.69;;;32.47;50.04
35419;BME280;21525;41.240;16.500;2022-08-01T02:11:22;101056.59;;;32.36;50.53
35419;BME280;21525;41.240;16.500;2022-08-01T02:14:04;101050.22;;;32.37;50.50
35419;BME280;21525;41.240;16.500;2022-08-01T02:16:35;101043.72;;;32.30;50.58
35419;BME280;21525;41.240;16.500;2022-08-01T02:19:03;101036.28;;;32.59;49.53
35419;BME280;21525;41.240;16.500;2022-08-01T02:24:53;101043.97;;;32.36;49.85
35419;BME280;21525;41.240;16.500;2022-08-01T02:27:28;101046.66;;;32.54;49.69
35419;BME280;21525;41.240;16.500;2022-08-01T02:30:01;101049.66;;;32.33;49.60
35419;BME280;21525;41.240;16.500;2022-08-01T02:32:35;101045.38;;;32.41;49.78
35419;BME280;21525;41.240;16.500;2022-08-01T02:35:02;101039.28;;;32.56;49.43
35419;BME280;21525;41.240;16.500;2022-08-01T02:37:34;101049.09;;;32.12;50.31
35419;BME280;21525;41.240;16.500;2022-08-01T02:40:02;101053.59;;;32.39;49.82
35419;BME280;21525;41.240;16.500;2022-08-01T02:42:29;101048.50;;;32.71;48.84
35419;BME280;21525;41.240;16.500;2022-08-01T02:44:56;101056.69;;;32.44;49.46
35419;BME280;21525;41.240;16.500;2022-08-01T02:47:25;101057.09;;;32.22;50.05
35419;BME280;21525;41.240;16.500;2022-08-01T02:49:54;101058.78;;;32.23;49.92
35419;BME280;21525;41.240;16.500;2022-08-01T02:52:23;101056.13;;;32.41;49.02
35419;BME280;21525;41.240;16.500;2022-08-01T02:54:54;101050.97;;;32.29;49.25
35419;BME280;21525;41.240;16.500;2022-08-01T02:57:21;101051.91;;;32.38;48.84
35419;BME280;21525;41.240;16.500;2022-08-01T02:59:49;101055.66;;;32.27;48.59
35419;BME280;21525;41.240;16.500;2022-08-01T03:02:17;101065.22;;;32.12;48.62
35419;BME280;21525;41.240;16.500;2022-08-01T03:04:44;101054.44;;;32.39;48.20
35419;BME280;21525;41.240;16.500;2022-08-01T03:07:12;101065.44;;;32.46;48.32
35419;BME280;21525;41.240;16.500;2022-08-01T03:09:41;101059.50;;;32.25;48.24
35419;BME280;21525;41.240;16.500;2022-08-01T03:12:15;101060.50;;;32.24;48.14
35419;BME280;21525;41.240;16.500;2022-08-01T03:14:43;101064.28;;;32.31;47.92
35419;BME280;21525;41.240;16.500;2022-08-01T03:17:09;101066.44;;;32.18;47.97
35419;BME280;21525;41.240;16.500;2022-08-01T03:19:45;101069.06;;;32.10;48.40
35419;BME280;21525;41.240;16.500;2022-08-01T03:22:12;101062.53;;;32.12;48.34
35419;BME280;21525;41.240;16.500;2022-08-01T03:24:41;101067.25;;;32.28;47.58
35419;BME280;21525;41.240;16.500;2022-08-01T03:27:08;101063.44;;;32.21;47.62
35419;BME280;21525;41.240;16.500;2022-08-01T03:29:35;101069.81;;;32.29;47.25
35419;BME280;21525;41.240;16.500;2022-08-01T03:32:03;101071.13;;;31.88;48.08
35419;BME280;21525;41.240;16.500;2022-08-01T03:34:29;101073.50;;;32.19;47.76
35419;BME280;21525;41.240;16.500;2022-08-01T03:39:30;101067.75;;;31.86;47.92
35419;BME280;21525;41.240;16.500;2022-08-01T03:42:03;101066.25;;;31.27;49.42
35419;BME280;21525;41.240;16.500;2022-08-01T03:44:33;101071.22;;;31.79;48.56
35419;BME280;21525;41.240;16.500;2022-08-01T03:47:07;101079.53;;;32.13;47.87
35419;BME280;21525;41.240;16.500;2022-08-01T03:49:52;101068.47;;;32.16;47.47
35419;BME280;21525;41.240;16.500;2022-08-01T03:52:19;101074.34;;;31.74;48.30
35419;BME280;21525;41.240;16.500;2022-08-01T03:54:47;101076.59;;;31.79;47.79
35419;BME280;21525;41.240;16.500;2022-08-01T03:57:15;101084.28;;;31.54;48.65
35419;BME280;21525;41.240;16.500;2022-08-01T03:59:42;101081.84;;;31.61;48.57
35419;BME280;21525;41.240;16.500;2022-08-01T04:02:09;101082.69;;;31.71;48.18
35419;BME280;21525;41.240;16.500;2022-08-01T04:04:35;101089.75;;;31.82;47.50
35419;BME280;21525;41.240;16.500;2022-08-01T04:07:01;101089.38;;;31.94;47.06
35419;BME280;21525;41.240;16.500;2022-08-01T04:09:33;101093.88;;;32.03;46.98
35419;BME280;21525;41.240;16.500;2022-08-01T04:12:00;101092.03;;;32.31;46.37
35419;BME280;21525;41.240;16.500;2022-08-01T04:14:27;101088.91;;;33.85;42.91
35419;BME280;21525;41.240;16.500;2022-08-01T04:16:54;101083.97;;;35.05;40.38
35419;BME280;21525;41.240;16.500;2022-08-01T04:19:20;101087.19;;;34.26;40.33
35419;BME280;21525;41.240;16.500;2022-08-01T04:21:47;101089.19;;;36.33;37.62
35419;BME280;21525;41.240;16.500;2022-08-01T04:24:16;101086.03;;;36.45;36.67
35419;BME280;21525;41.240;16.500;2022-08-01T04:26:45;101083.63;;;36.50;36.17
35419;BME280;21525;41.240;16.500;2022-08-01T04:29:13;101080.47;;;35.68;37.50
35419;BME280;21525;41.240;16.500;2022-08-01T04:31:43;101077.28;;;37.41;35.15
35419;BME280;21525;41.240;16.500;2022-08-01T04:34:11;101082.84;;;38.63;33.21
35419;BME280;21525;41.240;16.500;2022-08-01T04:36:40;101080.72;;;38.44;33.68
35419;BME280;21525;41.240;16.500;2022-08-01T04:39:10;101082.06;;;37.53;33.94
35419;BME280;21525;41.240;16.500;2022-08-01T04:41:37;101082.41;;;38.09;33.31
35419;BME280;21525;41.240;16.500;2022-08-01T04:44:04;101086.84;;;39.79;31.48
35419;BME280;21525;41.240;16.500;2022-08-01T04:46:31;101079.47;;;38.83;32.17
35419;BME280;21525;41.240;16.500;2022-08-01T04:48:59;101073.16;;;39.59;31.43
35419;BME280;21525;41.240;16.500;2022-08-01T04:51:26;101079.31;;;40.22;30.84
35419;BME280;21525;41.240;16.500;2022-08-01T04:53:52;101082.53;;;40.72;30.33
35419;BME280;21525;41.240;16.500;2022-08-01T04:56:19;101081.97;;;40.90;30.27
35419;BME280;21525;41.240;16.500;2022-08-01T04:58:46;101081.59;;;41.90;29.12
35419;BME280;21525;41.240;16.500;2022-08-01T05:01:12;101074.63;;;41.23;29.74
35419;BME280;21525;41.240;16.500;2022-08-01T05:03:38;101073.34;;;41.13;29.83
35419;BME280;21525;41.240;16.500;2022-08-01T05:06:05;101072.22;;;41.60;29.61
35419;BME280;21525;41.240;16.500;2022-08-01T05:08:31;101072.22;;;41.60;29.56
35419;BME280;21525;41.240;16.500;2022-08-01T05:10:57;101075.22;;;41.97;29.36
35419;BME280;21525;41.240;16.500;2022-08-01T05:13:23;101077.72;;;41.47;29.80
35419;BME280;21525;41.240;16.500;2022-08-01T05:15:49;101070.47;;;42.62;28.73
35419;BME280;21525;41.240;16.500;2022-08-01T05:18:29;101084.44;;;42.53;28.43
35419;BME280;21525;41.240;16.500;2022-08-01T05:20:55;101081.53;;;43.23;28.25
35419;BME280;21525;41.240;16.500;2022-08-01T05:23:21;101085.09;;;43.48;27.57
35419;BME280;21525;41.240;16.500;2022-08-01T05:25:48;101084.41;;;43.71;26.96
35419;BME280;21525;41.240;16.500;2022-08-01T05:28:15;101084.06;;;43.61;27.78
35419;BME280;21525;41.240;16.500;2022-08-01T05:30:41;101083.25;;;44.45;27.18
35419;BME280;21525;41.240;16.500;2022-08-01T05:33:07;101085.69;;;44.35;26.64
35419;BME280;21525;41.240;16.500;2022-08-01T05:35:33;101086.66;;;43.56;27.23
35419;BME280;21525;41.240;16.500;2022-08-01T05:37:59;101092.19;;;44.22;26.51
35419;BME280;21525;41.240;16.500;2022-08-01T05:40:25;101099.03;;;44.73;26.22
35419;BME280;21525;41.240;16.500;2022-08-01T05:42:51;101091.19;;;44.05;27.28
35419;BME280;21525;41.240;16.500;2022-08-01T05:45:16;101094.13;;;44.64;26.50
35419;BME280;21525;41.240;16.500;2022-08-01T05:47:42;101097.53;;;45.59;25.84
35419;BME280;21525;41.240;16.500;2022-08-01T05:50:08;101093.97;;;45.00;26.42
35419;BME280;21525;41.240;16.500;2022-08-01T05:52:54;101098.13;;;44.19;26.96
35419;BME280;21525;41.240;16.500;2022-08-01T05:55:20;101099.41;;;44.77;26.63
35419;BME280;21525;41.240;16.500;2022-08-01T05:57:46;101098.09;;;44.38;26.97
35419;BME280;21525;41.240;16.500;2022-08-01T06:00:12;101099.09;;;44.13;27.58
35419;BME280;21525;41.240;16.500;2022-08-01T06:02:41;101101.25;;;43.32;28.24
35419;BME280;21525;41.240;16.500;2022-08-01T06:05:08;101107.41;;;43.02;28.46
35419;BME280;21525;41.240;16.500;2022-08-01T06:07:34;101107.25;;;42.66;29.18
35419;BME280;21525;41.240;16.500;2022-08-01T06:09:59;101115.59;;;42.77;28.92
35419;BME280;21525;41.240;16.500;2022-08-01T06:12:25;101118.22;;;41.63;30.38
35419;BME280;21525;41.240;16.500;2022-08-01T06:14:51;101118.84;;;41.65;30.32
35419;BME280;21525;41.240;16.500;2022-08-01T06:17:17;101125.88;;;41.92;30.45
35419;BME280;21525;41.240;16.500;2022-08-01T06:19:43;101120.75;;;41.58;31.13
35419;BME280;21525;41.240;16.500;2022-08-01T06:22:09;101123.78;;;41.94;30.59
35419;BME280;21525;41.240;16.500;2022-08-01T06:24:34;101125.16;;;42.62;29.80
35419;BME280;21525;41.240;16.500;2022-08-01T06:27:01;101118.63;;;42.63;29.94
35419;BME280;21525;41.240;16.500;2022-08-01T06:29:30;101117.47;;;42.52;29.71
35419;BME280;21525;41.240;16.500;2022-08-01T06:31:56;101118.19;;;42.66;29.54
35419;BME280;21525;41.240;16.500;2022-08-01T06:34:42;101114.50;;;42.53;29.42
35419;BME280;21525;41.240;16.500;2022-08-01T06:37:08;101123.94;;;42.19;29.54
35419;BME280;21525;41.240;16.500;2022-08-01T06:39:34;101115.69;;;42.64;29.08
35419;BME280;21525;41.240;16.500;2022-08-01T06:42:00;101120.22;;;42.77;29.40
35419;BME280;21525;41.240;16.500;2022-08-01T06:44:46;101114.69;;;43.15;28.95
35419;BME280;21525;41.240;16.500;2022-08-01T06:47:12;101125.44;;;42.53;29.48
35419;BME280;21525;41.240;16.500;2022-08-01T06:49:38;101114.06;;;42.88;29.64
35419;BME280;21525;41.240;16.500;2022-08-01T06:52:04;101124.28;;;42.68;29.89
35419;BME280;21525;41.240;16.500;2022-08-01T06:54:30;101133.38;;;42.93;30.20
35419;BME280;21525;41.240;16.500;2022-08-01T06:56:56;101122.72;;;42.53;28.32
35419;BME280;21525;41.240;16.500;2022-08-01T06:59:22;101122.75;;;42.02;28.81
35419;BME280;21525;41.240;16.500;2022-08-01T07:01:48;101122.13;;;42.38;29.80
35419;BME280;21525;41.240;16.500;2022-08-01T07:04:13;101129.50;;;42.44;30.59
35419;BME280;21525;41.240;16.500;2022-08-01T07:06:39;101132.25;;;42.69;30.28
35419;BME280;21525;41.240;16.500;2022-08-01T07:09:05;101129.56;;;42.63;30.03
35419;BME280;21525;41.240;16.500;2022-08-01T07:11:31;101121.06;;;42.77;30.28
35419;BME280;21525;41.240;16.500;2022-08-01T07:13:57;101128.81;;;43.12;30.65
35419;BME280;21525;41.240;16.500;2022-08-01T07:16:23;101130.97;;;42.72;31.76
35419;BME280;21525;41.240;16.500;2022-08-01T07:18:49;101129.88;;;42.79;28.20
35419;BME280;21525;41.240;16.500;2022-08-01T07:21:15;101132.59;;;42.54;26.08
35419;BME280;21525;41.240;16.500;2022-08-01T07:23:44;101132.56;;;42.16;25.95
35419;BME280;21525;41.240;16.500;2022-08-01T07:26:10;101132.75;;;42.21;25.62
35419;BME280;21525;41.240;16.500;2022-08-01T07:28:36;101128.69;;;42.69;24.85
35419;BME280;21525;41.240;16.500;2022-08-01T07:31:02;101131.16;;;42.45;25.04
35419;BME280;21525;41.240;16.500;2022-08-01T07:33:30;101129.38;;;42.57;24.79
35419;BME280;21525;41.240;16.500;2022-08-01T07:35:56;101127.88;;;41.66;25.99
35419;BME280;21525;41.240;16.500;2022-08-01T07:38:29;101126.78;;;42.31;25.66
35419;BME280;21525;41.240;16.500;2022-08-01T07:40:55;101135.41;;;41.83;25.96
35419;BME280;21525;41.240;16.500;2022-08-01T07:43:22;101133.06;;;42.38;25.52
35419;BME280;21525;41.240;16.500;2022-08-01T07:45:48;101133.22;;;42.12;25.25
35419;BME280;21525;41.240;16.500;2022-08-01T07:48:14;101131.59;;;42.42;24.72
35419;BME280;21525;41.240;16.500;2022-08-01T07:50:40;101130.19;;;41.62;25.88
35419;BME280;21525;41.240;16.500;2022-08-01T07:53:05;101128.78;;;41.20;25.82
35419;BME280;21525;41.240;16.500;2022-08-01T07:55:31;101133.41;;;41.19;25.93
35419;BME280;21525;41.240;16.500;2022-08-01T07:57:57;101125.81;;;41.08;26.36
35419;BME280;21525;41.240;16.500;2022-08-01T08:00:23;101131.19;;;41.87;25.70
35419;BME280;21525;41.240;16.500;2022-08-01T08:02:49;101131.91;;;42.21;25.45
35419;BME280;21525;41.240;16.500;2022-08-01T08:05:15;101127.22;;;42.28;25.51
35419;BME280;21525;41.240;16.500;2022-08-01T08:07:41;101126.09;;;41.98;25.94
35419;BME280;21525;41.240;16.500;2022-08-01T08:10:07;101126.59;;;41.81;25.82
35419;BME280;21525;41.240;16.500;2022-08-01T08:12:33;101125.19;;;40.19;29.18
35419;BME280;21525;41.240;16.500;2022-08-01T08:14:59;101130.31;;;40.42;29.77
35419;BME280;21525;41.240;16.500;2022-08-01T08:17:26;101135.88;;;41.08;27.96
35419;BME280;21525;41.240;16.500;2022-08-01T08:19:53;101134.22;;;40.93;26.87
35419;BME280;21525;41.240;16.500;2022-08-01T08:22:19;101140.00;;;41.89;25.31
35419;BME280;21525;41.240;16.500;2022-08-01T08:24:45;101138.66;;;41.21;26.92
35419;BME280;21525;41.240;16.500;2022-08-01T08:27:11;101141.13;;;41.49;27.08
35419;BME280;21525;41.240;16.500;2022-08-01T08:29:37;101138.00;;;41.39;27.84
35419;BME280;21525;41.240;16.500;2022-08-01T08:32:03;101133.56;;;41.31;27.02
35419;BME280;21525;41.240;16.500;2022-08-01T08:34:29;101136.72;;;41.15;27.27
35419;BME280;21525;41.240;16.500;2022-08-01T08:36:57;101143.84;;;41.09;27.33
35419;BME280;21525;41.240;16.500;2022-08-01T08:39:23;101139.44;;;41.48;27.12
35419;BME280;21525;41.240;16.500;2022-08-01T08:41:50;101131.03;;;41.69;27.39
35419;BME280;21525;41.240;16.500;2022-08-01T08:44:17;101131.00;;;41.76;28.36
35419;BME280;21525;41.240;16.500;2022-08-01T08:46:49;101139.44;;;40.82;29.28
35419;BME280;21525;41.240;16.500;2022-08-01T08:49:27;101139.06;;;41.24;28.08
35419;BME280;21525;41.240;16.500;2022-08-01T08:52:00;101134.88;;;39.87;27.54
35419;BME280;21525;41.240;16.500;2022-08-01T08:54:27;101144.41;;;40.52;28.16
35419;BME280;21525;41.240;16.500;2022-08-01T08:56:54;101142.22;;;40.27;28.50
35419;BME280;21525;41.240;16.500;2022-08-01T08:59:21;101146.38;;;41.04;27.18
35419;BME280;21525;41.240;16.500;2022-08-01T09:01:47;101147.84;;;40.87;26.97
35419;BME280;21525;41.240;16.500;2022-08-01T09:04:13;101151.00;;;41.04;26.80
35419;BME280;21525;41.240;16.500;2022-08-01T09:06:40;101152.88;;;41.16;26.93
35419;BME280;21525;41.240;16.500;2022-08-01T09:09:09;101145.13;;;41.46;26.10
35419;BME280;21525;41.240;16.500;2022-08-01T09:11:36;101158.69;;;40.60;27.02
35419;BME280;21525;41.240;16.500;2022-08-01T09:14:10;101156.00;;;40.80;27.69
35419;BME280;21525;41.240;16.500;2022-08-01T09:16:38;101142.09;;;40.49;28.61
35419;BME280;21525;41.240;16.500;2022-08-01T09:19:17;101160.44;;;41.01;28.49
35419;BME280;21525;41.240;16.500;2022-08-01T09:22:00;101148.09;;;41.25;28.64
35419;BME280;21525;41.240;16.500;2022-08-01T09:24:28;101151.56;;;40.59;29.32
35419;BME280;21525;41.240;16.500;2022-08-01T09:26:55;101148.47;;;40.95;29.02
35419;BME280;21525;41.240;16.500;2022-08-01T09:29:29;101148.06;;;41.05;28.73
35419;BME280;21525;41.240;16.500;2022-08-01T09:31:56;101150.16;;;41.30;28.10
35419;BME280;21525;41.240;16.500;2022-08-01T09:34:28;101136.28;;;41.64;28.18
35419;BME280;21525;41.240;16.500;2022-08-01T09:36:57;101143.00;;;41.62;26.83
35419;BME280;21525;41.240;16.500;2022-08-01T09:41:53;101142.78;;;40.97;28.48
35419;BME280;21525;41.240;16.500;2022-08-01T09:44:39;101145.34;;;41.32;26.89
35419;BME280;21525;41.240;16.500;2022-08-01T09:47:05;101146.38;;;41.11;26.73
35419;BME280;21525;41.240;16.500;2022-08-01T09:49:36;101145.34;;;41.32;25.90
35419;BME280;21525;41.240;16.500;2022-08-01T09:52:21;101148.81;;;40.66;25.00
35419;BME280;21525;41.240;16.500;2022-08-01T09:55:03;101146.56;;;40.76;24.80
35419;BME280;21525;41.240;16.500;2022-08-01T09:57:29;101132.78;;;41.17;24.55
35419;BME280;21525;41.240;16.500;2022-08-01T09:59:57;101142.78;;;40.97;25.01
35419;BME280;21525;41.240;16.500;2022-08-01T10:02:35;101144.28;;;40.25;25.55
35419;BME280;21525;41.240;16.500;2022-08-01T10:05:04;101153.25;;;37.41;28.01
35419;BME280;21525;41.240;16.500;2022-08-01T10:07:31;101148.63;;;37.64;28.19
35419;BME280;21525;41.240;16.500;2022-08-01T10:10:17;101156.53;;;36.67;29.37
35419;BME280;21525;41.240;16.500;2022-08-01T10:12:43;101143.00;;;36.90;27.66
35419;BME280;21525;41.240;16.500;2022-08-01T10:15:10;101152.47;;;38.14;26.58
35419;BME280;21525;41.240;16.500;2022-08-01T10:17:38;101139.94;;;36.93;27.47
35419;BME280;21525;41.240;16.500;2022-08-01T10:20:06;101146.00;;;36.42;28.32
35419;BME280;21525;41.240;16.500;2022-08-01T10:22:54;101146.97;;;36.49;29.24
35419;BME280;21525;41.240;16.500;2022-08-01T10:25:20;101134.72;;;37.67;28.28
35419;BME280;21525;41.240;16.500;2022-08-01T10:28:10;101137.72;;;39.72;26.02
35419;BME280;21525;41.240;16.500;2022-08-01T10:30:41;101133.78;;;40.29;25.12
35419;BME280;21525;41.240;16.500;2022-08-01T10:33:07;101131.22;;;39.73;25.77
35419;BME280;21525;41.240;16.500;2022-08-01T10:35:34;101143.00;;;39.46;26.18
35419;BME280;21525;41.240;16.500;2022-08-01T10:38:00;101133.13;;;40.14;26.10
35419;BME280;21525;41.240;16.500;2022-08-01T10:40:27;101128.97;;;40.31;27.30
35419;BME280;21525;41.240;16.500;2022-08-01T10:42:54;101134.47;;;39.55;29.10
35419;BME280;21525;41.240;16.500;2022-08-01T10:45:20;101137.06;;;38.72;29.38
35419;BME280;21525;41.240;16.500;2022-08-01T10:50:38;101130.09;;;40.37;28.64
35419;BME280;21525;41.240;16.500;2022-08-01T10:53:14;101120.63;;;39.01;31.40
35419;BME280;21525;41.240;16.500;2022-08-01T10:58:31;101144.78;;;36.44;34.36
35419;BME280;21525;41.240;16.500;2022-08-01T11:01:25;101133.47;;;38.50;32.31
35419;BME280;21525;41.240;16.500;2022-08-01T11:09:04;101130.84;;;38.78;32.43
35419;BME280;21525;41.240;16.500;2022-08-01T11:11:30;101117.63;;;38.53;32.05
35419;BME280;21525;41.240;16.500;2022-08-01T11:16:43;101119.75;;;38.07;32.34
35419;BME280;21525;41.240;16.500;2022-08-01T11:19:09;101133.00;;;36.91;33.80
35419;BME280;21525;41.240;16.500;2022-08-01T11:27:31;101113.06;;;37.88;32.40
35419;BME280;21525;41.240;16.500;2022-08-01T11:32:49;101119.91;;;37.84;31.27
35419;BME280;21525;41.240;16.500;2022-08-01T11:35:16;101120.66;;;37.78;31.47
35419;BME280;21525;41.240;16.500;2022-08-01T11:37:42;101119.50;;;38.31;31.01
35419;BME280;21525;41.240;16.500;2022-08-01T11:40:21;101121.63;;;37.48;32.12
35419;BME280;21525;41.240;16.500;2022-08-01T11:42:49;101114.34;;;37.33;32.87
35419;BME280;21525;41.240;16.500;2022-08-01T11:45:15;101109.31;;;37.60;32.83
35419;BME280;21525;41.240;16.500;2022-08-01T11:47:49;101116.47;;;37.23;34.05
35419;BME280;21525;41.240;16.500;2022-08-01T11:50:35;101121.00;;;36.31;33.34
35419;BME280;21525;41.240;16.500;2022-08-01T11:53:03;101123.97;;;35.50;35.46
35419;BME280;21525;41.240;16.500;2022-08-01T11:55:30;101121.81;;;37.31;33.47
35419;BME280;21525;41.240;16.500;2022-08-01T11:58:01;101123.97;;;36.45;36.71
35419;BME280;21525;41.240;16.500;2022-08-01T12:00:28;101126.91;;;36.66;37.62
35419;BME280;21525;41.240;16.500;2022-08-01T12:03:07;101111.44;;;36.75;38.41
35419;BME280;21525;41.240;16.500;2022-08-01T12:05:34;101114.94;;;37.73;36.80
35419;BME280;21525;41.240;16.500;2022-08-01T12:08:02;101111.19;;;35.75;37.21
35419;BME280;21525;41.240;16.500;2022-08-01T12:10:34;101110.94;;;35.62;39.29
35419;BME280;21525;41.240;16.500;2022-08-01T12:13:06;101117.28;;;36.24;36.80
35419;BME280;21525;41.240;16.500;2022-08-01T12:15:37;101113.81;;;35.60;36.07
35419;BME280;21525;41.240;16.500;2022-08-01T12:18:07;101107.84;;;35.81;35.74
35419;BME280;21525;41.240;16.500;2022-08-01T12:20:35;101102.22;;;36.30;35.72
35419;BME280;21525;41.240;16.500;2022-08-01T12:23:06;101110.50;;;35.97;38.16
35419;BME280;21525;41.240;16.500;2022-08-01T12:25:34;101095.44;;;35.31;38.67
35419;BME280;21525;41.240;16.500;2022-08-01T12:28:02;101105.78;;;35.75;38.21
35419;BME280;21525;41.240;16.500;2022-08-01T12:30:28;101085.63;;;36.25;37.87
35419;BME280;21525;41.240;16.500;2022-08-01T12:32:56;101090.78;;;37.11;35.78
35419;BME280;21525;41.240;16.500;2022-08-01T12:35:27;101100.59;;;35.74;34.80
35419;BME280;21525;41.240;16.500;2022-08-01T12:37:59;101093.06;;;35.20;35.38
35419;BME280;21525;41.240;16.500;2022-08-01T12:40:28;101095.41;;;35.48;36.58
35419;BME280;21525;41.240;16.500;2022-08-01T12:42:57;101096.88;;;36.45;34.32
35419;BME280;21525;41.240;16.500;2022-08-01T12:45:27;101086.16;;;36.51;34.46
35419;BME280;21525;41.240;16.500;2022-08-01T12:47:54;101083.63;;;36.50;36.33
35419;BME280;21525;41.240;16.500;2022-08-01T12:50:23;101081.97;;;37.47;34.91
35419;BME280;21525;41.240;16.500;2022-08-01T12:52:50;101082.97;;;38.19;33.97
35419;BME280;21525;41.240;16.500;2022-08-01T12:55:18;101077.22;;;37.63;34.62
35419;BME280;21525;41.240;16.500;2022-08-01T12:57:49;101074.69;;;37.62;34.72
35419;BME280;21525;41.240;16.500;2022-08-01T13:00:22;101076.94;;;37.73;35.36
35419;BME280;21525;41.240;16.500;2022-08-01T13:02:50;101075.34;;;37.35;35.18
35419;BME280;21525;41.240;16.500;2022-08-01T13:05:16;101076.03;;;36.45;36.54
35419;BME280;21525;41.240;16.500;2022-08-01T13:07:50;101077.22;;;37.11;36.36
35419;BME280;21525;41.240;16.500;2022-08-01T13:10:29;101080.44;;;37.67;35.96
35419;BME280;21525;41.240;16.500;2022-08-01T13:12:57;101084.03;;;36.70;38.51
35419;BME280;21525;41.240;16.500;2022-08-01T13:15:29;101076.75;;;37.08;36.31
35419;BME280;21525;41.240;16.500;2022-08-01T13:18:21;101075.53;;;37.62;35.71
35419;BME280;21525;41.240;16.500;2022-08-01T13:20:47;101075.53;;;37.62;35.38
35419;BME280;21525;41.240;16.500;2022-08-01T13:23:18;101070.38;;;37.97;35.22
35419;BME280;21525;41.240;16.500;2022-08-01T13:25:49;101060.16;;;36.88;38.28
35419;BME280;21525;41.240;16.500;2022-08-01T13:28:21;101069.88;;;35.97;39.05
35419;BME280;21525;41.240;16.500;2022-08-01T13:31:13;101073.69;;;36.42;38.25